createdAt,value
2023-03-27T00:01:30.643Z,4.53
2023-03-27T00:04:00.552Z,5.87
2023-03-27T00:06:30.078Z,5.47
2023-03-27T00:08:58.402Z,4.50
2023-03-27T00:11:28.140Z,6.07
2023-03-27T00:13:56.524Z,5.97
2023-03-27T00:16:27.635Z,5.77
2023-03-27T00:18:56.532Z,5.53
2023-03-27T00:21:25.902Z,6.57
2023-03-27T00:23:54.558Z,7.37
2023-03-27T00:26:23.150Z,6.27
2023-03-27T00:28:53.559Z,4.37
2023-03-27T00:31:21.936Z,5.03
2023-03-27T00:33:50.418Z,5.50
2023-03-27T00:36:18.810Z,7.03
2023-03-27T00:38:47.097Z,5.60
2023-03-27T00:41:15.776Z,5.50
2023-03-27T00:43:44.908Z,5.27
2023-03-27T00:46:38.991Z,4.80
2023-03-27T00:49:11.780Z,6.97
2023-03-27T00:51:43.669Z,6.00
2023-03-27T00:54:16.203Z,6.70
2023-03-27T00:56:46.273Z,4.80
2023-03-27T00:59:18.874Z,6.60
2023-03-27T01:01:49.473Z,6.70
2023-03-27T01:04:21.445Z,6.17
2023-03-27T01:06:52.699Z,6.23
2023-03-27T01:09:21.508Z,6.03
2023-03-27T01:12:03.059Z,6.20
2023-03-27T01:14:39.541Z,5.77
2023-03-27T01:17:22.453Z,5.23
2023-03-27T01:20:14.567Z,7.27
2023-03-27T01:23:59.646Z,7.03
2023-03-27T01:27:00.399Z,5.57
2023-03-27T01:29:41.258Z,7.63
2023-03-27T01:32:42.048Z,4.63
2023-03-27T01:35:27.473Z,7.57
2023-03-27T01:38:21.755Z,6.97
2023-03-27T01:40:57.920Z,5.07
2023-03-27T01:43:34.278Z,5.67
2023-03-27T01:46:08.173Z,8.63
2023-03-27T01:48:42.156Z,7.00
2023-03-27T01:51:15.286Z,6.63
2023-03-27T01:53:49.928Z,6.10
2023-03-27T01:56:26.668Z,7.77
2023-03-27T01:59:04.013Z,6.63
2023-03-27T02:01:37.607Z,7.33
2023-03-27T02:04:13.231Z,7.43
2023-03-27T02:06:45.823Z,10.37
2023-03-27T02:09:18.386Z,6.80
2023-03-27T02:11:54.003Z,9.70
2023-03-27T02:14:27.621Z,6.30
2023-03-27T02:16:59.623Z,10.43
2023-03-27T02:19:33.538Z,7.23
2023-03-27T02:22:02.275Z,6.40
2023-03-27T02:24:43.125Z,7.33
2023-03-27T02:27:20.520Z,6.47
2023-03-27T02:30:06.215Z,6.87
2023-03-27T02:32:47.068Z,10.00
2023-03-27T02:35:29.825Z,8.13
2023-03-27T02:38:06.505Z,8.20
2023-03-27T02:40:47.594Z,8.23
2023-03-27T02:43:42.148Z,8.20
2023-03-27T02:46:21.432Z,7.87
2023-03-27T02:48:53.072Z,8.47
2023-03-27T02:51:26.798Z,8.27
2023-03-27T02:53:59.128Z,6.17
2023-03-27T02:56:33.208Z,7.67
2023-03-27T02:59:06.620Z,7.87
2023-03-27T03:01:40.254Z,6.77
2023-03-27T03:04:12.334Z,8.93
2023-03-27T03:06:58.935Z,7.60
2023-03-27T03:09:31.053Z,9.33
2023-03-27T03:12:01.271Z,9.00
2023-03-27T03:14:35.960Z,9.33
2023-03-27T03:17:04.668Z,8.53
2023-03-27T03:19:33.085Z,8.83
2023-03-27T03:22:02.062Z,9.00
2023-03-27T03:24:34.588Z,8.13
2023-03-27T03:27:05.712Z,19.80
2023-03-27T03:29:44.366Z,25.30
2023-03-27T03:32:21.944Z,23.80
2023-03-27T03:34:53.016Z,19.07
2023-03-27T03:37:21.828Z,17.60
2023-03-27T03:39:50.634Z,15.67
2023-03-27T03:42:22.179Z,9.90
2023-03-27T03:44:54.590Z,12.27
2023-03-27T03:47:24.197Z,9.17
2023-03-27T03:49:52.483Z,8.20
2023-03-27T03:52:21.075Z,8.27
2023-03-27T03:54:49.758Z,10.93
2023-03-27T03:57:18.535Z,12.33
2023-03-27T04:00:02.343Z,12.77
2023-03-27T04:02:45.431Z,20.43
2023-03-27T04:05:16.697Z,19.13
2023-03-27T04:07:45.826Z,20.33
2023-03-27T04:10:32.805Z,15.23
2023-03-27T04:13:04.718Z,13.43
2023-03-27T04:15:39.072Z,12.47
2023-03-27T04:18:19.727Z,11.10
2023-03-27T04:20:49.738Z,13.57
2023-03-27T04:23:19.864Z,10.40
2023-03-27T04:25:48.470Z,8.90
2023-03-27T04:28:22.694Z,12.47
2023-03-27T04:31:06.497Z,12.73
2023-03-27T04:34:01.323Z,8.53
2023-03-27T04:36:51.415Z,9.37
2023-03-27T04:39:24.174Z,10.77
2023-03-27T04:41:53.904Z,8.17
2023-03-27T04:44:22.415Z,11.10
2023-03-27T04:46:52.786Z,12.87
2023-03-27T04:49:21.235Z,9.53
2023-03-27T04:51:56.633Z,11.97
2023-03-27T04:54:31.660Z,11.00
2023-03-27T04:57:01.932Z,11.13
2023-03-27T04:59:31.979Z,10.53
2023-03-27T05:02:23.231Z,7.10
2023-03-27T05:05:13.739Z,15.80
2023-03-27T05:07:46.003Z,10.37
2023-03-27T05:10:21.909Z,10.40
2023-03-27T05:12:54.197Z,8.60
2023-03-27T05:15:25.004Z,11.57
2023-03-27T05:17:57.055Z,10.43
2023-03-27T05:20:27.447Z,9.73
2023-03-27T05:22:57.280Z,10.93
2023-03-27T05:25:30.898Z,10.43
2023-03-27T05:28:01.125Z,10.97
2023-03-27T05:30:36.023Z,10.03
2023-03-27T05:33:26.846Z,8.50
2023-03-27T05:35:58.634Z,10.67
2023-03-27T05:38:28.065Z,9.40
2023-03-27T05:41:16.093Z,10.00
2023-03-27T05:43:50.091Z,8.67
2023-03-27T05:47:22.202Z,10.53
2023-03-27T05:50:50.096Z,8.50
2023-03-27T05:54:10.790Z,10.73
2023-03-27T05:57:48.586Z,8.97
2023-03-27T06:00:29.174Z,15.53
2023-03-27T06:03:20.817Z,13.93
2023-03-27T06:06:28.688Z,12.37
2023-03-27T06:09:29.854Z,8.43
2023-03-27T06:12:34.140Z,10.40
2023-03-27T06:15:48.541Z,9.87
2023-03-27T06:18:49.539Z,10.07
2023-03-27T06:24:27.825Z,9.77
2023-03-27T06:27:21.288Z,10.40
2023-03-27T06:30:37.789Z,12.03
2023-03-27T06:34:13.775Z,13.93
2023-03-27T06:37:41.400Z,10.43
2023-03-27T06:40:44.173Z,13.67
2023-03-27T06:43:53.888Z,10.83
2023-03-27T06:47:05.923Z,10.57
2023-03-27T06:50:00.808Z,10.20
2023-03-27T06:52:33.287Z,13.73
2023-03-27T06:55:16.053Z,11.00
2023-03-27T06:57:54.206Z,11.13
2023-03-27T07:00:26.490Z,11.83
2023-03-27T07:03:14.412Z,13.00
2023-03-27T07:06:02.281Z,8.77
2023-03-27T07:08:43.327Z,10.10
2023-03-27T07:11:12.582Z,11.23
2023-03-27T07:13:51.124Z,15.17
2023-03-27T07:16:26.898Z,11.13
2023-03-27T07:18:55.904Z,14.57
2023-03-27T07:21:26.952Z,19.07
2023-03-27T07:24:03.746Z,16.90
2023-03-27T07:26:35.009Z,14.63
2023-03-27T07:29:10.881Z,16.30
2023-03-27T07:34:20.985Z,20.40
2023-03-27T07:37:04.583Z,10.77
2023-03-27T07:39:36.584Z,10.77
2023-03-27T07:42:05.668Z,11.17
2023-03-27T07:44:47.430Z,12.17
2023-03-27T07:47:16.786Z,12.83
2023-03-27T07:49:47.160Z,14.93
2023-03-27T07:52:21.926Z,12.60
2023-03-27T07:55:00.862Z,11.77
2023-03-27T07:58:00.557Z,9.50
2023-03-27T08:00:32.602Z,9.80
2023-03-27T08:03:11.073Z,10.67
2023-03-27T08:05:44.775Z,11.33
2023-03-27T08:08:17.126Z,11.93
2023-03-27T08:11:03.563Z,9.27
2023-03-27T08:13:37.407Z,9.03
2023-03-27T08:16:10.658Z,9.30
2023-03-27T08:18:45.718Z,12.20
2023-03-27T08:21:15.934Z,9.50
2023-03-27T08:24:08.188Z,11.83
2023-03-27T08:26:58.942Z,9.13
2023-03-27T08:29:28.328Z,8.47
2023-03-27T08:31:57.262Z,12.07
2023-03-27T08:34:26.573Z,7.97
2023-03-27T08:36:56.461Z,9.30
2023-03-27T08:39:32.843Z,9.67
2023-03-27T08:42:17.810Z,9.60
2023-03-27T08:44:55.007Z,8.10
2023-03-27T08:47:41.756Z,7.43
2023-03-27T08:50:33.883Z,6.20
2023-03-27T08:53:18.564Z,8.87
2023-03-27T08:55:48.238Z,9.07
2023-03-27T08:58:28.347Z,9.77
2023-03-27T09:01:18.877Z,8.80
2023-03-27T09:03:58.659Z,8.67
2023-03-27T09:06:30.416Z,7.30
2023-03-27T09:09:08.730Z,8.80
2023-03-27T09:11:48.129Z,6.50
2023-03-27T09:14:31.177Z,6.30
2023-03-27T09:17:02.542Z,6.13
2023-03-27T09:19:42.372Z,5.00
2023-03-27T09:22:18.796Z,7.10
2023-03-27T09:25:02.606Z,7.13
2023-03-27T09:27:58.837Z,8.35
2023-03-27T09:30:42.410Z,7.90
2023-03-27T09:33:22.418Z,6.68
2023-03-27T09:35:51.214Z,5.28
2023-03-27T09:38:27.967Z,5.07
2023-03-27T09:41:00.220Z,6.88
2023-03-27T09:43:35.691Z,7.90
2023-03-27T09:46:07.510Z,7.50
2023-03-27T09:48:41.393Z,4.07
2023-03-27T09:51:38.233Z,5.82
2023-03-27T09:54:09.508Z,6.35
2023-03-27T09:56:41.214Z,3.50
2023-03-27T09:59:20.811Z,7.00
2023-03-27T10:01:52.021Z,6.30
2023-03-27T10:04:23.463Z,7.28
2023-03-27T10:07:05.675Z,6.47
2023-03-27T10:10:11.983Z,7.63
2023-03-27T10:13:03.503Z,5.30
2023-03-27T10:15:41.996Z,6.63
2023-03-27T10:18:28.462Z,5.70
2023-03-27T10:21:31.794Z,6.00
2023-03-27T10:24:04.242Z,6.55
2023-03-27T10:26:59.610Z,7.10
2023-03-27T10:29:32.298Z,3.75
2023-03-27T10:32:04.259Z,5.35
2023-03-27T10:34:51.919Z,4.78
2023-03-27T10:37:51.262Z,5.35
2023-03-27T10:40:59.312Z,6.25
2023-03-27T10:43:41.583Z,4.32
2023-03-27T10:46:13.744Z,5.20
2023-03-27T10:48:53.646Z,5.97
2023-03-27T10:51:46.039Z,5.82
2023-03-27T10:54:31.329Z,5.32
2023-03-27T10:57:03.720Z,6.25
2023-03-27T10:59:41.928Z,7.38
2023-03-27T11:02:25.305Z,4.95
2023-03-27T11:05:00.552Z,5.03
2023-03-27T11:07:34.117Z,5.13
2023-03-27T11:10:13.368Z,6.05
2023-03-27T11:12:46.776Z,7.90
2023-03-27T11:15:22.375Z,5.47
2023-03-27T11:17:58.800Z,6.95
2023-03-27T11:20:45.957Z,6.50
2023-03-27T11:23:40.420Z,7.38
2023-03-27T11:26:37.042Z,6.77
2023-03-27T11:29:09.600Z,6.93
2023-03-27T11:31:52.236Z,5.37
2023-03-27T11:34:49.465Z,5.70
2023-03-27T11:37:43.790Z,7.13
2023-03-27T11:40:21.036Z,5.57
2023-03-27T11:42:58.391Z,5.93
2023-03-27T11:45:37.772Z,4.40
2023-03-27T11:48:24.820Z,5.40
2023-03-27T11:51:00.782Z,6.37
2023-03-27T11:53:54.940Z,4.07
2023-03-27T11:56:54.493Z,5.40
2023-03-27T12:00:09.590Z,4.40
2023-03-27T12:03:15.594Z,7.43
2023-03-27T12:05:58.548Z,5.50
2023-03-27T12:08:53.013Z,5.23
2023-03-27T12:11:24.217Z,6.63
2023-03-27T12:14:23.899Z,6.73
2023-03-27T12:17:33.564Z,4.57
2023-03-27T12:20:53.812Z,7.47
2023-03-27T12:23:42.907Z,5.00
2023-03-27T12:26:50.900Z,6.50
2023-03-27T12:29:59.341Z,4.27
2023-03-27T12:32:56.314Z,4.53
2023-03-27T12:35:31.846Z,6.33
2023-03-27T12:38:03.604Z,4.33
2023-03-27T12:40:42.062Z,5.20
2023-03-27T12:43:29.904Z,6.33
2023-03-27T12:46:37.251Z,4.93
2023-03-27T12:50:07.218Z,4.60
2023-03-27T12:52:39.857Z,6.00
2023-03-27T12:55:33.810Z,4.63
2023-03-27T12:58:05.407Z,5.43
2023-03-27T13:01:11.130Z,5.20
2023-03-27T13:04:33.021Z,4.67
2023-03-27T13:07:11.192Z,4.93
2023-03-27T13:10:19.410Z,6.43
2023-03-27T13:13:06.127Z,4.23
2023-03-27T13:15:57.751Z,5.43
2023-03-27T13:18:57.181Z,5.93
2023-03-27T13:21:39.696Z,5.33
2023-03-27T13:24:27.418Z,4.70
2023-03-27T13:27:08.807Z,5.93
2023-03-27T13:29:41.532Z,4.20
2023-03-27T13:32:37.826Z,5.57
2023-03-27T13:35:40.784Z,5.10
2023-03-27T13:38:13.667Z,5.83
2023-03-27T13:41:42.459Z,5.10
2023-03-27T13:44:25.295Z,5.33
2023-03-27T13:46:59.946Z,4.57
2023-03-27T13:49:59.446Z,3.30
2023-03-27T13:52:55.950Z,4.50
2023-03-27T13:56:07.499Z,4.07
2023-03-27T13:59:45.896Z,3.17
2023-03-27T14:02:48.142Z,3.17
2023-03-27T14:05:49.450Z,4.63
2023-03-27T14:08:33.110Z,3.47
2023-03-27T14:11:38.246Z,4.50
2023-03-27T14:14:38.129Z,4.40
2023-03-27T14:17:29.834Z,4.83
2023-03-27T14:20:23.617Z,4.77
2023-03-27T14:23:00.716Z,5.13
2023-03-27T14:25:38.459Z,3.80
2023-03-27T14:28:34.787Z,3.70
2023-03-27T14:31:11.461Z,6.30
2023-03-27T14:34:03.127Z,4.37
2023-03-27T14:36:36.025Z,4.57
2023-03-27T14:39:17.197Z,3.63
2023-03-27T14:41:55.932Z,2.57
2023-03-27T14:44:26.098Z,4.67
2023-03-27T14:47:04.410Z,4.30
2023-03-27T14:49:37.364Z,4.43
2023-03-27T14:52:10.757Z,5.47
2023-03-27T14:55:06.953Z,7.00
2023-03-27T14:57:41.573Z,4.13
2023-03-27T15:00:17.066Z,4.80
2023-03-27T15:02:52.357Z,6.17
2023-03-27T15:05:23.233Z,3.07
2023-03-27T15:07:58.733Z,4.90
2023-03-27T15:10:59.345Z,3.37
2023-03-27T15:13:39.643Z,4.77
2023-03-27T15:16:19.386Z,6.13
2023-03-27T15:19:04.904Z,4.70
2023-03-27T15:21:45.254Z,5.03
2023-03-27T15:24:17.918Z,2.87
2023-03-27T15:26:49.381Z,6.97
2023-03-27T15:29:22.886Z,3.73
2023-03-27T15:31:53.052Z,3.47
2023-03-27T15:34:34.321Z,4.03
2023-03-27T15:37:05.823Z,7.37
2023-03-27T15:39:37.828Z,5.00
2023-03-27T15:42:08.876Z,6.07
2023-03-27T15:44:39.840Z,5.20
2023-03-27T15:47:25.832Z,5.10
2023-03-27T15:50:17.238Z,5.23
2023-03-27T15:52:50.549Z,4.90
2023-03-27T15:55:47.840Z,4.57
2023-03-27T15:58:22.308Z,6.93
2023-03-27T16:00:53.567Z,5.60
2023-03-27T16:03:25.144Z,4.60
2023-03-27T16:05:58.537Z,5.13
2023-03-27T16:08:32.649Z,2.90
2023-03-27T16:11:01.896Z,5.03
2023-03-27T16:13:35.684Z,4.60
2023-03-27T16:16:07.175Z,6.00
2023-03-27T16:18:38.198Z,5.03
2023-03-27T16:21:10.751Z,4.57
2023-03-27T16:23:39.398Z,4.27
2023-03-27T16:26:10.822Z,4.47
2023-03-27T16:28:39.522Z,4.23
2023-03-27T16:31:12.732Z,4.87
2023-03-27T16:33:43.536Z,4.87
2023-03-27T16:36:15.423Z,4.03
2023-03-27T16:38:44.770Z,3.87
2023-03-27T16:41:15.316Z,4.30
2023-03-27T16:43:44.986Z,4.63
2023-03-27T16:46:19.986Z,3.77
2023-03-27T16:48:48.737Z,3.30
2023-03-27T16:51:19.296Z,4.30
2023-03-27T16:53:48.180Z,3.70
2023-03-27T16:56:17.435Z,4.17
2023-03-27T16:58:46.470Z,5.93
2023-03-27T17:04:14.868Z,2.70
2023-03-27T17:06:51.634Z,3.37
2023-03-27T17:09:23.482Z,3.97
2023-03-27T17:11:52.373Z,3.63
2023-03-27T17:14:21.118Z,4.87
2023-03-27T17:17:14.731Z,3.23
2023-03-27T17:19:53.484Z,4.10
2023-03-27T17:22:24.099Z,2.67
2023-03-27T17:24:56.543Z,4.83
2023-03-27T17:27:27.306Z,4.97
2023-03-27T17:29:56.910Z,5.03
2023-03-27T17:32:26.200Z,3.63
2023-03-27T17:34:55.993Z,3.40
2023-03-27T17:37:27.488Z,5.13
2023-03-27T17:39:56.334Z,4.43
2023-03-27T17:42:25.324Z,4.87
2023-03-27T17:44:54.164Z,5.07
2023-03-27T17:47:22.921Z,4.27
2023-03-27T17:49:53.322Z,3.97
2023-03-27T17:52:23.548Z,4.93
2023-03-27T17:54:53.734Z,4.53
2023-03-27T17:57:23.035Z,3.70
2023-03-27T17:59:51.818Z,5.83
2023-03-27T18:02:22.763Z,4.13
2023-03-27T18:04:52.476Z,3.00
2023-03-27T18:07:21.891Z,4.17
